Terminal Aerodrome Forecast
Issued by NWS

Home | Current Version | Previous Version | Text Only | Print | Product List | Glossary On
Versions: 1 2 3 4 5 6 7 8 9 10 11 12 13
125
FTUS41 KAKQ 282340
TAFPHF
TAF
KPHF 282340Z 2900/2924 12007KT P6SM SCT250
     FM290300 13003KT P6SM BKN250
     FM290900 10004KT 4SM BR BKN008 OVC020
     FM291300 11009KT 4SM BR OVC015
     FM291500 12007KT P6SM BKN025 OVC040
     FM291700 11006KT 5SM SHRA BKN025 OVC040=

USA.gov is the U.S. government's official web portal to all federal, state and local government web resources and services.